Time;durP1;ratioP1;P1;durP2;ratioP2;P2;SDS_P1;SDS_P2;PMS_P1;PMS_P2;Temp;Humidity;BMP_temperature;BMP_pressure;BME280_temperature;BME280_humidity;BME280_pressure;Samples;Min_cycle;Max_cycle;Signal;HPM_P1;HPM_P2
2022/10/08 00:00:27;;;;;;;7.80;6.03;;;;;;;13.14;100.00;102298.13;2073615;28;20454;-59
2022/10/08 00:01:27;;;;;;;7.13;6.07;;;;;;;13.12;100.00;102296.97;2070493;28;20615;-59
2022/10/08 00:02:28;;;;;;;9.37;6.17;;;;;;;13.09;100.00;102294.97;2074199;28;20200;-58
2022/10/08 00:03:31;;;;;;;11.93;6.00;;;;;;;13.07;100.00;102295.38;2073308;28;20288;-59
2022/10/08 00:04:32;;;;;;;7.27;5.77;;;;;;;13.01;100.00;102290.69;2074089;28;20190;-58
2022/10/08 00:05:32;;;;;;;9.97;6.07;;;;;;;13.02;100.00;102295.03;2070869;28;20437;-59
2022/10/08 00:06:33;;;;;;;10.87;5.90;;;;;;;12.26;100.00;102177.50;2074182;28;20209;-59
2022/10/08 00:07:33;;;;;;;8.03;5.77;;;;;;;12.95;100.00;102275.56;2074170;28;20273;-58
2022/10/08 00:08:36;;;;;;;8.57;6.50;;;;;;;12.99;100.00;102279.16;2074179;28;20185;-59
2022/10/08 00:09:37;;;;;;;8.67;6.07;;;;;;;12.96;100.00;102282.78;2074083;28;20190;-59
2022/10/08 00:10:37;;;;;;;10.77;6.57;;;;;;;12.97;100.00;102287.13;2073898;28;20957;-59
2022/10/08 00:11:39;;;;;;;9.90;6.43;;;;;;;12.67;100.00;102242.41;2074039;28;20193;-58
2022/10/08 00:12:39;;;;;;;9.63;6.40;;;;;;;12.88;100.00;102276.44;2073263;28;20704;-59
2022/10/08 00:13:41;;;;;;;7.37;6.57;;;;;;;12.86;100.00;102283.59;2069117;28;20414;-58
2022/10/08 00:14:42;;;;;;;9.03;6.87;;;;;;;12.84;100.00;102283.19;2073682;28;20702;-58
2022/10/08 00:15:42;;;;;;;8.13;6.63;;;;;;;12.85;100.00;102284.78;2072578;28;20437;-59
2022/10/08 00:16:42;;;;;;;11.67;7.00;;;;;;;12.84;100.00;102284.00;2069226;28;20191;-59
2022/10/08 00:17:43;;;;;;;8.73;6.50;;;;;;;12.82;100.00;102275.25;2073916;28;20621;-59
2022/10/08 00:18:46;;;;;;;7.70;6.40;;;;;;;12.54;100.00;102235.72;2073787;28;20194;-58
2022/10/08 00:19:46;;;;;;;9.70;6.37;;;;;;;12.63;100.00;102244.41;2074033;28;20223;-59
2022/10/08 00:20:47;;;;;;;9.23;6.43;;;;;;;12.34;100.00;102201.31;2073925;28;20412;-59
2022/10/08 00:21:52;;;;;;;8.03;6.50;;;;;;;12.78;100.00;102270.94;2074027;28;20269;-59
2022/10/08 00:22:52;;;;;;;10.70;6.50;;;;;;;12.73;100.00;102266.59;2074154;28;20174;-60
2022/10/08 00:23:53;;;;;;;8.63;6.03;;;;;;;12.74;100.00;102268.19;2076617;28;20517;-59
2022/10/08 00:24:54;;;;;;;11.57;6.63;;;;;;;11.95;100.00;102145.91;2070920;28;20207;-58
2022/10/08 00:25:54;;;;;;;7.07;5.87;;;;;;;12.62;100.00;102249.19;2073674;28;20197;-58
2022/10/08 00:26:55;;;;;;;10.17;7.13;;;;;;;12.70;100.00;102264.63;2073880;28;20452;-58
2022/10/08 00:27:55;;;;;;;8.87;6.60;;;;;;;12.67;100.00;102261.88;2073649;28;20191;-59
2022/10/08 00:28:57;;;;;;;8.30;6.73;;;;;;;12.66;100.00;102260.28;2065970;28;20663;-59
2022/10/08 00:29:58;;;;;;;9.27;7.10;;;;;;;12.64;100.00;102263.47;2073103;28;20210;-58
2022/10/08 00:31:05;;;;;;;8.80;6.67;;;;;;;12.07;100.00;102170.47;2073571;28;20440;-58
2022/10/08 00:32:05;;;;;;;10.30;6.90;;;;;;;12.61;100.00;102257.94;2074183;28;20162;-59
2022/10/08 00:33:07;;;;;;;11.57;6.80;;;;;;;12.59;100.00;102261.13;2074034;28;20425;-58
2022/10/08 00:34:11;;;;;;;9.27;7.00;;;;;;;12.57;100.00;102255.19;2072303;28;20189;-58
2022/10/08 00:35:11;;;;;;;12.17;7.20;;;;;;;12.36;100.00;102221.16;2073963;28;20419;-58
2022/10/08 00:36:12;;;;;;;13.83;7.40;;;;;;;12.23;100.00;102198.56;2073802;28;20428;-58
2022/10/08 00:37:14;;;;;;;12.00;6.93;;;;;;;12.11;100.00;102181.56;2073862;28;20182;-59
2022/10/08 00:38:14;;;;;;;12.07;7.23;;;;;;;12.56;100.00;102256.34;2071208;28;20213;-60
2022/10/08 00:39:16;;;;;;;11.20;7.03;;;;;;;12.54;100.00;102250.41;2074050;28;20413;-58
2022/10/08 00:40:17;;;;;;;10.57;6.73;;;;;;;12.53;100.00;102248.03;2073896;28;20185;-59
2022/10/08 00:41:22;;;;;;;11.83;6.53;;;;;;;12.53;100.00;102251.63;2073820;28;20431;-58
2022/10/08 00:42:23;;;;;;;12.93;6.47;;;;;;;12.44;100.00;102234.59;2073903;28;20249;-59
2022/10/08 00:43:43;;;;;;;11.33;6.40;;;;;;;12.51;100.00;102251.22;2073766;28;20425;-58
2022/10/08 00:44:52;;;;;;;11.40;7.33;;;;;;;12.50;100.00;102246.88;2065884;28;20198;-59
2022/10/08 00:45:52;;;;;;;12.57;6.30;;;;;;;12.48;100.00;102242.91;2070883;28;20477;-58
2022/10/08 00:46:53;;;;;;;11.20;6.83;;;;;;;12.05;100.00;102177.63;2073861;28;20432;-59
2022/10/08 00:47:56;;;;;;;12.17;6.23;;;;;;;12.46;100.00;102254.44;2073877;28;20210;-59
2022/10/08 00:49:13;;;;;;;9.33;5.90;;;;;;;12.47;100.00;102249.66;2065576;28;20231;-58
2022/10/08 00:50:19;;;;;;;9.63;6.50;;;;;;;12.46;100.00;102250.88;2067893;28;20402;-59
2022/10/08 00:51:20;;;;;;;10.70;6.17;;;;;;;12.43;100.00;102251.66;2073765;28;20425;-58
2022/10/08 00:52:24;;;;;;;7.67;5.90;;;;;;;12.42;100.00;102242.56;2073644;28;20465;-59
2022/10/08 00:53:24;;;;;;;6.90;5.67;;;;;;;12.39;100.00;102243.34;2073573;28;20738;-59
2022/10/08 00:54:24;;;;;;;9.63;5.93;;;;;;;12.37;100.00;102248.53;2073843;28;20915;-58
2022/10/08 00:55:28;;;;;;;9.17;5.60;;;;;;;12.08;100.00;102199.84;2073518;28;20212;-59
2022/10/08 00:56:34;;;;;;;9.73;5.33;;;;;;;12.35;100.00;102245.34;2073890;28;20650;-59
2022/10/08 00:57:36;;;;;;;7.50;5.67;;;;;;;12.35;100.00;102242.56;2067046;28;20974;-58
2022/10/08 00:58:38;;;;;;;8.17;5.57;;;;;;;12.32;100.00;102235.06;2073450;28;20447;-58
2022/10/08 00:59:39;;;;;;;8.53;5.53;;;;;;;12.30;100.00;102234.66;2072155;28;20442;-59
2022/10/08 01:00:39;;;;;;;8.80;5.70;;;;;;;12.28;100.00;102234.28;2073434;28;20409;-59
2022/10/08 01:01:42;;;;;;;7.23;5.50;;;;;;;12.12;100.00;102211.75;2073820;28;20181;-59
2022/10/08 01:02:42;;;;;;;8.43;5.50;;;;;;;12.27;100.00;102243.03;2073695;28;20292;-59
2022/10/08 01:03:43;;;;;;;9.93;5.70;;;;;;;11.81;100.00;102172.97;2070860;28;20471;-58
2022/10/08 01:04:44;;;;;;;6.97;5.67;;;;;;;12.28;100.00;102239.84;2073717;28;20195;-58
2022/10/08 01:05:57;;;;;;;8.43;5.77;;;;;;;12.27;100.00;102243.84;2072455;28;20265;-58
2022/10/08 01:07:23;;;;;;;6.37;5.33;;;;;;;12.29;100.00;102241.44;2073490;28;20423;-58
2022/10/08 01:08:24;;;;;;;8.17;5.60;;;;;;;12.28;100.00;102237.06;2072710;28;20443;-58
2022/10/08 01:09:49;;;;;;;7.70;5.70;;;;;;;12.27;100.00;102238.28;2073608;28;20416;-59
2022/10/08 01:11:15;;;;;;;7.93;5.20;;;;;;;12.27;100.00;102240.25;2073605;28;20414;-58
2022/10/08 01:12:52;;;;;;;11.67;5.10;;;;;;;12.25;100.00;102240.66;2065605;28;20413;-59
2022/10/08 01:13:53;;;;;;;12.67;5.53;;;;;;;12.24;100.00;102244.63;2066073;28;20424;-58
2022/10/08 01:15:06;;;;;;;9.13;5.53;;;;;;;12.24;100.00;102235.50;2071150;28;20439;-59
2022/10/08 01:16:24;;;;;;;8.03;5.80;;;;;;;12.23;100.00;102229.16;2070792;28;20256;-59
2022/10/08 01:17:46;;;;;;;8.07;5.87;;;;;;;12.22;100.00;102232.34;2073408;28;20419;-59
2022/10/08 01:19:17;;;;;;;9.50;5.57;;;;;;;12.21;100.00;102226.00;2071515;28;20426;-59
2022/10/08 01:20:38;;;;;;;11.43;5.90;;;;;;;11.81;100.00;102171.00;2073561;28;20433;-58
2022/10/08 01:21:56;;;;;;;7.47;5.53;;;;;;;11.63;100.00;102150.06;2071860;28;20961;-59
2022/10/08 01:23:15;;;;;;;7.33;5.57;;;;;;;12.17;100.00;102230.78;2073624;28;20841;-59
2022/10/08 01:24:15;;;;;;;8.43;5.90;;;;;;;12.17;100.00;102235.53;2069728;28;20435;-59
2022/10/08 01:25:32;;;;;;;9.80;5.67;;;;;;;12.14;100.00;102231.56;2073492;28;20422;-59
2022/10/08 01:26:54;;;;;;;9.17;5.47;;;;;;;12.16;100.00;102231.19;2073489;28;20233;-58
2022/10/08 01:28:02;;;;;;;8.87;5.80;;;;;;;12.15;100.00;102224.03;2068629;28;20419;-59
2022/10/08 01:29:25;;;;;;;8.07;5.77;;;;;;;12.18;100.00;102232.34;2069530;28;20416;-59
2022/10/08 01:30:27;;;;;;;9.67;6.13;;;;;;;12.18;100.00;102214.88;2068307;28;20415;-58
2022/10/08 01:31:44;;;;;;;7.73;5.70;;;;;;;12.19;100.00;102214.47;2073347;28;20426;-58
2022/10/08 01:33:02;;;;;;;8.73;6.20;;;;;;;12.18;100.00;102209.31;2073598;28;20421;-58
2022/10/08 01:34:11;;;;;;;7.63;5.67;;;;;;;12.21;100.00;102212.09;2068769;28;20489;-59
2022/10/08 01:35:19;;;;;;;7.03;5.90;;;;;;;12.23;100.00;102211.66;2073472;28;20500;-60
2022/10/08 01:36:22;;;;;;;10.03;5.90;;;;;;;12.23;100.00;102212.47;2070141;28;20455;-59
2022/10/08 01:37:27;;;;;;;7.93;5.57;;;;;;;11.86;100.00;102153.94;2069655;28;20424;-58
2022/10/08 01:38:32;;;;;;;7.17;5.30;;;;;;;11.69;100.00;102126.22;2073246;28;20474;-58
2022/10/08 01:39:35;;;;;;;8.43;5.23;;;;;;;12.25;100.00;102221.19;2073414;28;20427;-59
2022/10/08 01:40:39;;;;;;;8.00;5.30;;;;;;;12.25;100.00;102214.84;2073264;28;20964;-59
2022/10/08 01:41:42;;;;;;;8.87;5.40;;;;;;;12.26;100.00;102222.78;2073225;28;20854;-59
2022/10/08 01:42:45;;;;;;;5.83;4.90;;;;;;;12.26;100.00;102222.78;2073525;28;20421;-59
2022/10/08 01:43:52;;;;;;;6.43;4.93;;;;;;;12.27;100.00;102220.78;2069868;28;20471;-59
2022/10/08 01:44:58;;;;;;;8.87;5.33;;;;;;;12.27;100.00;102218.00;2065363;28;20408;-59
2022/10/08 01:46:13;;;;;;;6.73;5.20;;;;;;;12.28;100.00;102227.94;2070561;28;20444;-58
2022/10/08 01:47:19;;;;;;;5.97;5.07;;;;;;;12.16;100.00;102218.09;2072754;28;20421;-58
2022/10/08 01:48:24;;;;;;;7.80;5.53;;;;;;;11.74;100.00;102151.56;2073069;28;20422;-58
2022/10/08 01:49:30;;;;;;;23.10;7.40;;;;;;;12.25;100.00;102223.19;2069731;28;20440;-59
2022/10/08 01:50:36;;;;;;;23.03;8.10;;;;;;;12.24;100.00;102222.38;2073312;28;20435;-59
2022/10/08 01:51:42;;;;;;;18.50;7.47;;;;;;;12.24;100.00;102214.06;2073378;28;20424;-59
2022/10/08 01:52:51;;;;;;;14.60;7.30;;;;;;;11.75;100.00;102147.63;2073281;28;20462;-59
2022/10/08 01:53:52;;;;;;;16.17;7.20;;;;;;;12.24;100.00;102221.63;2071846;28;20426;-58
2022/10/08 01:55:06;;;;;;;16.00;6.77;;;;;;;12.24;100.00;102233.50;2072731;28;20433;-59
2022/10/08 01:56:11;;;;;;;12.07;6.23;;;;;;;12.20;100.00;102220.84;2073297;28;20214;-58
2022/10/08 01:57:12;;;;;;;13.00;6.30;;;;;;;11.88;100.00;102162.63;2073371;28;20411;-59
2022/10/08 01:58:18;;;;;;;11.90;6.47;;;;;;;12.21;100.00;102222.41;2073383;28;20518;-59
2022/10/08 01:59:26;;;;;;;9.83;6.20;;;;;;;12.19;100.00;102227.59;2073203;28;20434;-59
2022/10/08 02:00:27;;;;;;;9.90;6.50;;;;;;;12.18;100.00;102224.00;2071557;28;20431;-59
2022/10/08 02:01:51;;;;;;;8.97;5.83;;;;;;;12.20;100.00;102226.41;2073119;28;20955;-59
2022/10/08 02:02:54;;;;;;;8.77;6.27;;;;;;;12.17;100.00;102221.63;2073205;28;20860;-59
2022/10/08 02:05:13;;;;;;;7.73;5.43;;;;;;;12.08;100.00;102213.75;2073497;28;20906;-59
2022/10/08 02:06:14;;;;;;;9.10;6.23;;;;;;;12.11;100.00;102226.03;2073135;28;20480;-59
2022/10/08 02:07:21;;;;;;;6.80;6.10;;;;;;;12.04;100.00;102212.97;2073285;28;20224;-58
2022/10/08 02:08:23;;;;;;;8.70;6.63;;;;;;;12.08;100.00;102224.06;2073080;28;20178;-58
2022/10/08 02:09:26;;;;;;;10.67;6.73;;;;;;;11.52;100.00;102136.19;2073247;28;20436;-58
2022/10/08 02:10:26;;;;;;;10.13;6.70;;;;;;;12.08;100.00;102224.06;2073307;28;20427;-58
2022/10/08 02:11:27;;;;;;;9.50;6.53;;;;;;;12.08;100.00;102227.63;2073267;28;20482;-58
2022/10/08 02:12:28;;;;;;;10.83;6.43;;;;;;;12.09;100.00;102220.88;2073390;28;20192;-59
2022/10/08 02:13:29;;;;;;;8.23;5.80;;;;;;;12.07;100.00;102220.50;2073074;28;20174;-58
2022/10/08 02:14:31;;;;;;;8.53;7.00;;;;;;;12.08;100.00;102224.06;2071105;28;20265;-60
2022/10/08 02:15:45;;;;;;;8.47;6.17;;;;;;;12.08;100.00;102227.63;2073283;28;20189;-58
2022/10/08 02:16:52;;;;;;;8.37;6.40;;;;;;;12.09;100.00;102231.22;2071484;28;20424;-58
2022/10/08 02:18:08;;;;;;;10.00;6.47;;;;;;;12.09;100.00;102228.44;2070905;28;20464;-58
2022/10/08 02:19:48;;;;;;;10.93;7.00;;;;;;;12.08;100.00;102229.63;2067606;28;20571;-57
2022/10/08 02:20:54;;;;;;;11.87;6.40;;;;;;;12.07;100.00;102219.69;2069704;28;20439;-58
2022/10/08 02:21:58;;;;;;;8.43;6.00;;;;;;;12.05;100.00;102231.22;2072116;28;20468;-58
2022/10/08 02:23:07;;;;;;;13.87;6.43;;;;;;;12.01;100.00;102221.31;2072913;28;21012;-58
2022/10/08 02:24:20;;;;;;;10.70;6.97;;;;;;;12.04;100.00;102220.53;2071701;28;20837;-58
2022/10/08 02:25:52;;;;;;;9.63;6.30;;;;;;;12.04;100.00;102224.06;2073161;28;20986;-58
2022/10/08 02:26:57;;;;;;;9.40;6.37;;;;;;;12.03;100.00;102228.06;2072542;28;21015;-59
2022/10/08 02:28:22;;;;;;;9.73;6.33;;;;;;;12.02;100.00;102222.91;2073353;28;20487;-59
2022/10/08 02:29:31;;;;;;;7.90;6.07;;;;;;;12.01;100.00;102219.34;2073150;28;20405;-58
2022/10/08 02:30:39;;;;;;;9.57;6.07;;;;;;;12.01;100.00;102235.22;2073292;28;20420;-58
2022/10/08 02:31:44;;;;;;;10.73;5.70;;;;;;;11.82;100.00;102199.56;2072902;28;20432;-59
2022/10/08 02:32:52;;;;;;;11.43;5.60;;;;;;;12.01;100.00;102230.47;2073073;28;20437;-58
2022/10/08 02:34:11;;;;;;;7.60;6.17;;;;;;;12.02;100.00;102225.69;2073087;28;20412;-58
2022/10/08 02:35:26;;;;;;;8.20;6.10;;;;;;;12.01;100.00;102226.88;2073113;28;20413;-58
2022/10/08 02:36:35;;;;;;;7.77;6.17;;;;;;;11.99;100.00;102224.50;2073023;28;20412;-59
2022/10/08 02:37:42;;;;;;;10.43;6.37;;;;;;;12.01;100.00;102227.69;2070654;28;20502;-59
2022/10/08 02:38:51;;;;;;;8.53;6.57;;;;;;;12.01;100.00;102233.25;2073184;28;20510;-59
2022/10/08 02:40:06;;;;;;;9.30;6.03;;;;;;;12.01;100.00;102232.44;2072828;28;20517;-58
2022/10/08 02:41:09;;;;;;;8.57;6.73;;;;;;;11.99;100.00;102232.84;2064946;28;20433;-59
2022/10/08 02:42:12;;;;;;;9.70;6.53;;;;;;;12.00;100.00;102233.63;2071907;28;20905;-59
2022/10/08 02:43:20;;;;;;;7.77;5.97;;;;;;;11.98;100.00;102231.25;2072605;28;20436;-58
2022/10/08 02:44:27;;;;;;;9.17;6.70;;;;;;;11.98;100.00;102233.22;2072055;28;20858;-59
2022/10/08 02:45:33;;;;;;;8.30;6.10;;;;;;;11.97;100.00;102229.69;2073223;28;20443;-58
2022/10/08 02:46:39;;;;;;;8.13;6.53;;;;;;;11.59;100.00;102177.81;2071688;28;20952;-58
2022/10/08 02:47:41;;;;;;;7.37;6.30;;;;;;;11.83;100.00;102215.06;2065572;28;20428;-59
2022/10/08 02:48:58;;;;;;;7.27;6.10;;;;;;;11.94;100.00;102236.03;2071513;28;20483;-58
2022/10/08 02:50:04;;;;;;;10.20;5.97;;;;;;;11.94;100.00;102230.47;2071481;28;20425;-59
2022/10/08 02:51:09;;;;;;;9.70;5.80;;;;;;;11.40;100.00;102142.19;2072620;28;20432;-59
2022/10/08 02:52:10;;;;;;;7.50;6.17;;;;;;;11.93;100.00;102237.22;2071541;28;20423;-59
2022/10/08 02:53:17;;;;;;;9.97;6.33;;;;;;;11.66;100.00;102193.69;2073025;28;20419;-59
2022/10/08 02:54:19;;;;;;;12.17;6.13;;;;;;;11.91;100.00;102233.25;2072944;28;20507;-59
2022/10/08 02:55:29;;;;;;;6.63;5.70;;;;;;;11.90;100.00;102232.50;2072894;28;20428;-59
2022/10/08 02:56:51;;;;;;;9.20;6.60;;;;;;;11.90;100.00;102240.81;2072745;28;20420;-59
2022/10/08 02:58:12;;;;;;;10.30;6.50;;;;;;;11.90;100.00;102237.25;2072801;28;20440;-59
2022/10/08 02:59:18;;;;;;;16.80;7.00;;;;;;;11.88;100.00;102231.31;2072924;28;20434;-59
2022/10/08 03:00:18;;;;;;;10.00;7.10;;;;;;;11.87;100.00;102241.63;2072790;28;20842;-60
2022/10/08 03:01:27;;;;;;;10.63;6.90;;;;;;;11.87;100.00;102240.81;2072925;28;20454;-58
2022/10/08 03:02:54;;;;;;;8.63;6.67;;;;;;;11.87;100.00;102238.84;2069966;28;20561;-58
2022/10/08 03:04:24;;;;;;;9.13;7.03;;;;;;;11.43;100.00;102177.44;2072789;28;20563;-58
2022/10/08 03:05:26;;;;;;;9.20;6.70;;;;;;;11.41;100.00;102173.50;2073080;28;20409;-59
2022/10/08 03:06:28;;;;;;;7.40;6.53;;;;;;;11.82;100.00;102238.44;2072993;28;20419;-59
2022/10/08 03:07:31;;;;;;;8.60;6.70;;;;;;;11.81;100.00;102242.44;2071571;28;20428;-60
2022/10/08 03:08:36;;;;;;;11.97;6.60;;;;;;;11.80;100.00;102236.09;2072685;28;20884;-59
2022/10/08 03:09:40;;;;;;;8.83;7.17;;;;;;;11.79;100.00;102233.72;2072884;28;20423;-58
2022/10/08 03:10:42;;;;;;;11.33;6.60;;;;;;;11.79;100.00;102242.81;2072352;28;21219;-59
2022/10/08 03:11:43;;;;;;;9.37;6.93;;;;;;;11.79;100.00;102242.06;2071793;28;20463;-58
2022/10/08 03:12:43;;;;;;;11.53;7.43;;;;;;;11.80;100.00;102249.19;2072772;28;20413;-58
2022/10/08 03:13:47;;;;;;;8.93;7.10;;;;;;;11.75;100.00;102232.94;2070099;28;20201;-59
2022/10/08 03:14:49;;;;;;;9.53;6.77;;;;;;;11.78;100.00;102246.03;2072745;28;20685;-59
2022/10/08 03:15:52;;;;;;;11.20;7.47;;;;;;;11.79;100.00;102250.38;2069850;28;20491;-59
2022/10/08 03:16:53;;;;;;;7.50;6.73;;;;;;;11.78;100.00;102246.03;2073038;28;20428;-58
2022/10/08 03:17:56;;;;;;;9.17;6.50;;;;;;;11.77;100.00;102242.44;2072820;28;20443;-59
2022/10/08 03:18:58;;;;;;;8.30;6.13;;;;;;;11.76;100.00;102240.88;2072754;28;20651;-59
2022/10/08 03:20:04;;;;;;;7.67;5.97;;;;;;;11.74;100.00;102242.47;2072810;28;20428;-58
2022/10/08 03:21:08;;;;;;;8.93;6.73;;;;;;;11.73;100.00;102243.66;2072512;28;20443;-58
2022/10/08 03:22:09;;;;;;;9.97;5.97;;;;;;;11.70;100.00;102241.66;2072888;28;20417;-58
2022/10/08 03:23:13;;;;;;;11.73;6.20;;;;;;;11.66;100.00;102246.44;2072737;28;20437;-59
2022/10/08 03:24:14;;;;;;;10.17;6.00;;;;;;;11.64;100.00;102234.94;2072660;28;20212;-59
2022/10/08 03:25:15;;;;;;;11.43;6.23;;;;;;;11.64;100.00;102234.94;2071116;28;20526;-58
2022/10/08 03:26:17;;;;;;;12.63;6.37;;;;;;;11.58;100.00;102228.19;2072982;28;20417;-59
2022/10/08 03:27:17;;;;;;;17.23;7.57;;;;;;;11.56;100.00;102233.34;2067436;28;20203;-58
2022/10/08 03:28:18;;;;;;;12.87;7.10;;;;;;;11.59;100.00;102240.91;2072741;28;20416;-60
2022/10/08 03:29:19;;;;;;;13.03;7.30;;;;;;;11.37;100.00;102206.03;2072928;28;21000;-59
2022/10/08 03:30:19;;;;;;;11.20;6.90;;;;;;;11.53;100.00;102243.25;2072742;28;20732;-59
2022/10/08 03:31:19;;;;;;;8.17;6.07;;;;;;;11.52;100.00;102241.69;2071060;28;20190;-59
2022/10/08 03:32:20;;;;;;;9.00;5.93;;;;;;;11.32;100.00;102215.53;2072459;28;20221;-58
2022/10/08 03:33:21;;;;;;;8.10;5.90;;;;;;;11.51;100.00;102247.63;2073086;28;20174;-59
2022/10/08 03:34:23;;;;;;;7.30;5.60;;;;;;;11.49;100.00;102231.41;2071720;28;20183;-59
2022/10/08 03:35:24;;;;;;;8.80;6.10;;;;;;;11.50;100.00;102232.16;2070967;28;20185;-59
2022/10/08 03:36:25;;;;;;;10.13;5.73;;;;;;;11.50;100.00;102234.94;2073421;28;20424;-58
2022/10/08 03:37:25;;;;;;;7.43;5.80;;;;;;;11.50;100.00;102232.16;2071587;28;20195;-59
2022/10/08 03:38:26;;;;;;;8.37;6.33;;;;;;;11.48;100.00;102229.00;2073868;28;20677;-59
2022/10/08 03:39:26;;;;;;;8.30;6.20;;;;;;;11.48;100.00;102234.56;2073825;28;20196;-59
2022/10/08 03:40:26;;;;;;;8.80;6.33;;;;;;;11.48;100.00;102231.78;2074313;28;20643;-59
2022/10/08 03:41:30;;;;;;;8.03;6.27;;;;;;;11.47;100.00;102233.75;2074357;28;20170;-59
2022/10/08 03:42:30;;;;;;;11.90;7.00;;;;;;;11.47;100.00;102233.75;2074359;28;20190;-59
2022/10/08 03:43:32;;;;;;;9.57;6.37;;;;;;;11.21;100.00;102200.91;2070244;28;20437;-59
2022/10/08 03:44:33;;;;;;;10.73;6.53;;;;;;;11.45;100.00;102236.16;2071463;28;20181;-58
2022/10/08 03:45:33;;;;;;;12.00;6.67;;;;;;;11.44;100.00;102231.81;2074295;28;20479;-59
2022/10/08 03:46:34;;;;;;;8.03;6.47;;;;;;;11.39;100.00;102223.06;2077890;28;20739;-58
2022/10/08 03:47:34;;;;;;;7.00;6.00;;;;;;;11.45;100.00;102236.16;2074365;28;20192;-60
2022/10/08 03:48:35;;;;;;;7.10;6.13;;;;;;;11.44;100.00;102231.81;2073678;28;20253;-59
2022/10/08 03:49:35;;;;;;;8.50;6.10;;;;;;;11.45;100.00;102235.34;2074175;28;20189;-58
2022/10/08 03:50:36;;;;;;;8.63;5.90;;;;;;;11.45;100.00;102227.03;2073996;28;20183;-58
2022/10/08 03:51:36;;;;;;;7.70;5.47;;;;;;;11.45;100.00;102233.38;2071860;28;20265;-59
2022/10/08 03:52:37;;;;;;;9.00;5.77;;;;;;;11.45;100.00;102232.56;2073917;28;20678;-59
2022/10/08 03:53:39;;;;;;;10.37;5.50;;;;;;;11.44;100.00;102233.78;2074217;28;20177;-60
2022/10/08 03:54:39;;;;;;;8.73;5.60;;;;;;;11.43;100.00;102221.88;2074172;28;20260;-59
2022/10/08 03:55:39;;;;;;;8.50;5.60;;;;;;;10.87;100.00;102147.03;2074268;28;20417;-59
2022/10/08 03:56:40;;;;;;;10.60;5.80;;;;;;;11.38;100.00;102225.03;2072767;28;20213;-59
2022/10/08 03:57:40;;;;;;;8.93;5.30;;;;;;;11.37;100.00;102214.38;2074111;28;20818;-59
2022/10/08 03:58:41;;;;;;;7.67;4.70;;;;;;;11.30;100.00;102215.16;2074156;28;20201;-59
2022/10/08 03:59:42;;;;;;;7.17;4.60;;;;;;;11.30;100.00;102217.94;2073880;28;20562;-59
2022/10/08 04:00:42;;;;;;;7.80;4.73;;;;;;;11.27;100.00;102217.94;2073948;28;20519;-59
2022/10/08 04:01:43;;;;;;;6.87;4.80;;;;;;;11.17;100.00;102213.97;2074055;28;20181;-61
2022/10/08 04:02:48;;;;;;;6.37;4.60;;;;;;;11.17;100.00;102213.97;2074227;28;20216;-61
2022/10/08 04:03:49;;;;;;;9.93;5.27;;;;;;;11.14;100.00;102217.56;2074170;28;20280;-60
2022/10/08 04:04:49;;;;;;;6.33;5.00;;;;;;;11.13;100.00;102218.72;2073663;28;20478;-61
2022/10/08 04:05:50;;;;;;;7.00;4.80;;;;;;;11.11;100.00;102214.78;2074201;28;20471;-60
2022/10/08 04:06:50;;;;;;;11.10;5.33;;;;;;;11.11;100.00;102217.53;2074044;28;20181;-62
2022/10/08 04:07:51;;;;;;;7.67;4.60;;;;;;;10.81;100.00;102176.34;2074234;28;20174;-61
2022/10/08 04:08:52;;;;;;;6.30;4.27;;;;;;;10.99;100.00;102223.50;2073532;28;20633;-61
2022/10/08 04:09:52;;;;;;;6.90;4.47;;;;;;;10.90;100.00;102215.59;2071983;28;20186;-61
2022/10/08 04:10:53;;;;;;;8.30;4.50;;;;;;;10.81;100.00;102212.41;2071308;28;20439;-61
2022/10/08 04:11:53;;;;;;;5.40;4.33;;;;;;;10.78;100.00;102216.00;2074013;28;20464;-61
2022/10/08 04:12:54;;;;;;;5.77;4.70;;;;;;;10.76;100.00;102215.56;2073613;28;20194;-61
2022/10/08 04:13:54;;;;;;;5.93;4.60;;;;;;;10.74;100.00;102215.19;2074059;28;20173;-61
2022/10/08 04:14:54;;;;;;;5.83;4.73;;;;;;;10.70;100.00;102211.63;2073977;28;20220;-61
2022/10/08 04:16:00;;;;;;;7.40;4.60;;;;;;;10.70;100.00;102210.81;2074173;28;20224;-61
2022/10/08 04:17:00;;;;;;;8.07;4.87;;;;;;;10.67;100.00;102215.16;2074004;28;20170;-61
2022/10/08 04:18:00;;;;;;;6.97;5.17;;;;;;;10.66;100.00;102212.81;2073985;28;21010;-61
2022/10/08 04:19:01;;;;;;;7.87;4.80;;;;;;;10.61;100.00;102216.75;2074026;28;20252;-61
2022/10/08 04:20:01;;;;;;;7.13;5.40;;;;;;;10.54;100.00;102202.88;2074141;28;20170;-61
2022/10/08 04:21:05;;;;;;;9.03;5.30;;;;;;;10.58;100.00;102216.75;2074161;28;20609;-61
2022/10/08 04:22:05;;;;;;;7.63;5.10;;;;;;;10.55;100.00;102212.78;2074182;28;20170;-61
2022/10/08 04:23:07;;;;;;;8.67;5.50;;;;;;;10.54;100.00;102218.72;2073977;28;20516;-61
2022/10/08 04:24:08;;;;;;;7.33;5.40;;;;;;;10.50;100.00;102215.16;2073856;28;20197;-61
2022/10/08 04:25:08;;;;;;;7.87;5.00;;;;;;;10.48;100.00;102212.78;2073575;28;20436;-61
2022/10/08 04:26:11;;;;;;;8.00;5.60;;;;;;;10.49;100.00;102216.31;2074142;28;20464;-61
2022/10/08 04:27:12;;;;;;;9.40;6.27;;;;;;;10.49;100.00;102213.56;2073872;28;20648;-61
2022/10/08 04:28:12;;;;;;;9.83;6.43;;;;;;;10.47;100.00;102219.53;2074028;28;20794;-61
2022/10/08 04:29:13;;;;;;;15.43;6.70;;;;;;;10.47;100.00;102210.41;2073965;28;20209;-61
2022/10/08 04:30:14;;;;;;;10.20;6.30;;;;;;;10.47;100.00;102205.66;2073863;28;20178;-61
2022/10/08 04:31:17;;;;;;;8.67;6.30;;;;;;;10.48;100.00;102218.31;2073956;28;20197;-61
2022/10/08 04:32:17;;;;;;;9.93;6.37;;;;;;;10.48;100.00;102210.00;2074000;28;20425;-61
2022/10/08 04:33:18;;;;;;;11.07;6.70;;;;;;;10.45;100.00;102202.47;2070277;28;20915;-61
2022/10/08 04:34:18;;;;;;;9.37;6.27;;;;;;;10.50;100.00;102220.72;2067682;28;20178;-61
2022/10/08 04:35:19;;;;;;;9.27;6.20;;;;;;;10.51;100.00;102213.97;2073832;28;20236;-62
2022/10/08 04:36:22;;;;;;;8.33;5.27;;;;;;;10.52;100.00;102210.00;2074038;28;20178;-61
2022/10/08 04:37:22;;;;;;;8.73;6.00;;;;;;;10.53;100.00;102214.38;2073717;28;20590;-61
2022/10/08 04:38:24;;;;;;;10.20;5.93;;;;;;;10.52;100.00;102210.81;2071827;28;20456;-62
2022/10/08 04:39:24;;;;;;;9.40;5.60;;;;;;;10.53;100.00;102214.38;2073925;28;20205;-61
2022/10/08 04:40:24;;;;;;;11.20;6.23;;;;;;;10.54;100.00;102210.41;2073906;28;20424;-61
2022/10/08 04:41:26;;;;;;;10.67;6.30;;;;;;;9.92;100.00;102118.44;2073844;28;20186;-60
2022/10/08 04:42:26;;;;;;;13.17;6.53;;;;;;;10.54;100.00;102207.63;2073915;28;20659;-60
2022/10/08 04:43:27;;;;;;;11.30;6.13;;;;;;;10.54;100.00;102213.16;2073831;28;20849;-61
2022/10/08 04:44:27;;;;;;;13.43;6.70;;;;;;;10.55;100.00;102214.78;2074013;28;20186;-62
2022/10/08 04:45:27;;;;;;;16.10;7.17;;;;;;;10.55;100.00;102212.78;2074042;28;20185;-61
2022/10/08 04:46:28;;;;;;;10.27;6.10;;;;;;;10.53;100.00;102209.63;2073876;28;20193;-61
2022/10/08 04:47:28;;;;;;;10.40;6.40;;;;;;;10.55;100.00;102209.22;2073823;28;20607;-60
2022/10/08 04:48:29;;;;;;;14.93;6.70;;;;;;;9.96;100.00;102115.66;2073798;28;20241;-61
2022/10/08 04:49:29;;;;;;;9.80;6.60;;;;;;;10.56;100.00;102214.34;2072754;28;20247;-61
2022/10/08 04:50:30;;;;;;;8.27;6.37;;;;;;;10.55;100.00;102210.00;2073768;28;20268;-61
2022/10/08 04:51:30;;;;;;;13.17;6.17;;;;;;;10.54;100.00;102211.19;2073745;28;20217;-61
2022/10/08 04:52:31;;;;;;;11.43;6.50;;;;;;;10.55;100.00;102218.31;2074052;28;20174;-61
2022/10/08 04:53:32;;;;;;;11.87;6.63;;;;;;;10.57;100.00;102209.63;2072971;28;20687;-61
2022/10/08 04:54:33;;;;;;;10.67;6.13;;;;;;;10.57;100.00;102215.97;2073012;28;20197;-61
2022/10/08 04:55:33;;;;;;;11.43;7.20;;;;;;;10.58;100.00;102208.44;2073913;28;20902;-61
2022/10/08 04:56:35;;;;;;;13.03;6.97;;;;;;;10.59;100.00;102208.03;2073947;28;20195;-61
2022/10/08 04:57:35;;;;;;;14.83;7.20;;;;;;;10.62;100.00;102209.22;2073493;28;20186;-61